createdAt,value
2016-07-02T00:02:04.740Z,1006.42
2016-07-02T00:05:14.405Z,1006.4
2016-07-02T00:08:31.153Z,1006.42
2016-07-02T00:11:39.338Z,1006.32
2016-07-02T00:14:43.533Z,1006.34
2016-07-02T00:17:56.438Z,1006.3
2016-07-02T00:21:09.407Z,1006.22
2016-07-02T00:24:22.254Z,1006.24
2016-07-02T00:27:39.177Z,1006.28
2016-07-02T00:30:43.344Z,1006.26
2016-07-02T00:33:56.238Z,1006.1
2016-07-02T00:37:09.102Z,1006.14
2016-07-02T00:40:21.841Z,1006.12
2016-07-02T00:43:38.560Z,1006.08
2016-07-02T00:46:42.596Z,1006
2016-07-02T00:49:55.521Z,1006
2016-07-02T00:53:07.810Z,1005.98
2016-07-02T00:56:20.897Z,1005.94
2016-07-02T00:59:37.790Z,1005.94
2016-07-02T01:02:42.034Z,1005.8
2016-07-02T01:05:54.772Z,1005.86
2016-07-02T01:09:07.562Z,1005.88
2016-07-02T01:12:17.647Z,1005.86
2016-07-02T01:15:34.346Z,1005.74
2016-07-02T01:18:38.341Z,1005.8
2016-07-02T01:21:51.293Z,1005.86
2016-07-02T01:25:04.073Z,1005.72
2016-07-02T01:28:17.044Z,1005.68
2016-07-02T01:31:33.877Z,1005.68
2016-07-02T01:34:37.971Z,1005.52
2016-07-02T01:37:49.138Z,1005.56
2016-07-02T01:41:01.952Z,1005.78
2016-07-02T01:44:15.373Z,1005.78
2016-07-02T01:47:32.541Z,1005.82
2016-07-02T01:50:40.911Z,1005.88
2016-07-02T01:53:45.250Z,1005.82
2016-07-02T01:56:58.372Z,1005.92
2016-07-02T02:00:11.534Z,1005.9
2016-07-02T02:03:24.624Z,1005.82
2016-07-02T02:06:41.410Z,1005.8
2016-07-02T02:09:45.603Z,1005.7
2016-07-02T02:12:58.584Z,1005.78
2016-07-02T02:16:11.366Z,1005.82
2016-07-02T02:19:23.049Z,1005.66
2016-07-02T02:22:41.004Z,1005.74
2016-07-02T02:25:45.087Z,1005.7
2016-07-02T02:28:57.911Z,1005.62
2016-07-02T02:32:10.885Z,1005.64
2016-07-02T02:35:23.705Z,1005.66
2016-07-02T02:38:40.575Z,1005.74
2016-07-02T02:41:44.732Z,1005.64
2016-07-02T02:44:57.806Z,1005.64
2016-07-02T02:48:10.430Z,1005.58
2016-07-02T02:51:21.568Z,1005.54
2016-07-02T02:54:38.635Z,1005.5
2016-07-02T02:57:42.738Z,1005.46
2016-07-02T03:00:55.851Z,1005.46
2016-07-02T03:04:08.864Z,1005.44
2016-07-02T03:07:21.906Z,1005.48
2016-07-02T03:10:38.867Z,1005.4
2016-07-02T03:13:42.819Z,1005.46
2016-07-02T03:16:55.671Z,1005.44
2016-07-02T03:20:08.005Z,1005.42
2016-07-02T03:23:20.985Z,1005.36
2016-07-02T03:26:37.939Z,1005.3
2016-07-02T03:29:42.272Z,1005.18
2016-07-02T03:32:55.424Z,1005.24
2016-07-02T03:36:08.449Z,1005.24
2016-07-02T03:39:21.282Z,1005.18
2016-07-02T03:42:38.455Z,1005.24
2016-07-02T03:45:42.669Z,1005
2016-07-02T03:48:55.830Z,1005.06
2016-07-02T03:52:07.478Z,1005.14
2016-07-02T03:55:21.604Z,1005.04
2016-07-02T03:58:38.601Z,1005.04
2016-07-02T04:01:42.908Z,1005.1
2016-07-02T04:04:56.017Z,1005.04
2016-07-02T04:08:06.092Z,1005
2016-07-02T04:11:19.326Z,1004.98
2016-07-02T04:14:36.422Z,1004.94
2016-07-02T04:17:40.552Z,1004.94
2016-07-02T04:20:53.702Z,1004.96
2016-07-02T04:24:06.696Z,1004.88
2016-07-02T04:27:19.746Z,1004.84
2016-07-02T04:30:36.864Z,1004.92
2016-07-02T04:33:40.985Z,1004.84
2016-07-02T04:36:54.016Z,1004.73
2016-07-02T04:40:07.056Z,1004.8
2016-07-02T04:43:19.835Z,1004.84
2016-07-02T04:46:36.665Z,1004.8
2016-07-02T04:49:41.060Z,1004.8
2016-07-02T04:52:54.197Z,1004.88
2016-07-02T04:56:07.662Z,1004.78
2016-07-02T04:59:21.131Z,1004.84
2016-07-02T05:02:39.094Z,1004.8
2016-07-02T05:05:43.979Z,1004.78
2016-07-02T05:08:57.868Z,1004.67
2016-07-02T05:12:11.246Z,1004.78
2016-07-02T05:15:25.065Z,1004.71
2016-07-02T05:18:39.005Z,1004.53
2016-07-02T05:21:53.007Z,1004.61
2016-07-02T05:25:06.579Z,1004.53
2016-07-02T05:28:20.744Z,1004.61
2016-07-02T05:31:38.905Z,1004.53
2016-07-02T05:34:44.399Z,1004.57
2016-07-02T05:37:57.206Z,1004.49
2016-07-02T05:41:11.150Z,1004.53
2016-07-02T05:44:25.148Z,1004.49
2016-07-02T05:47:39.193Z,1004.57
2016-07-02T05:50:50.938Z,1004.45
2016-07-02T05:54:04.838Z,1004.49
2016-07-02T05:57:18.974Z,1004.49
2016-07-02T06:00:34.855Z,1004.49
2016-07-02T06:03:40.061Z,1004.39
2016-07-02T06:06:54.133Z,1004.39
2016-07-02T06:10:08.215Z,1004.41
2016-07-02T06:13:22.222Z,1004.37
2016-07-02T06:16:40.093Z,1004.29
2016-07-02T06:19:45.487Z,1004.31
2016-07-02T06:22:59.624Z,1004.37
2016-07-02T06:26:13.795Z,1004.27
2016-07-02T06:29:27.491Z,1004.31
2016-07-02T06:32:41.432Z,1004.31
2016-07-02T06:35:55.711Z,1004.33
2016-07-02T06:39:09.776Z,1004.21
2016-07-02T06:42:23.905Z,1004.05
2016-07-02T06:45:38.402Z,1004.17
2016-07-02T06:48:52.705Z,1004.03
2016-07-02T06:52:06.808Z,1004.01
2016-07-02T06:55:21.048Z,1003.91
2016-07-02T06:58:39.574Z,1004.11
2016-07-02T07:01:45.124Z,1003.97
2016-07-02T07:04:59.514Z,1004.01
2016-07-02T07:08:13.809Z,1004.05
2016-07-02T07:11:28.131Z,1004.11
2016-07-02T07:14:42.433Z,1004.05
2016-07-02T07:17:56.463Z,1004.21
2016-07-02T07:21:10.791Z,1004.33
2016-07-02T07:24:24.787Z,1004.33
2016-07-02T07:27:38.783Z,1004.31
2016-07-02T07:30:53.046Z,1004.33
2016-07-02T07:34:04.054Z,1004.35
2016-07-02T07:37:18.010Z,1004.39
2016-07-02T07:40:34.116Z,1004.39
2016-07-02T07:43:39.487Z,1004.53
2016-07-02T07:46:53.534Z,1004.41
2016-07-02T07:50:07.639Z,1004.59
2016-07-02T07:53:21.544Z,1004.45
2016-07-02T07:56:39.506Z,1004.63
2016-07-02T07:59:44.851Z,1004.61
2016-07-02T08:02:58.809Z,1004.69
2016-07-02T08:06:12.978Z,1004.57
2016-07-02T08:09:26.973Z,1004.47
2016-07-02T08:12:40.873Z,1004.63
2016-07-02T08:15:53.980Z,1004.53
2016-07-02T08:19:09.279Z,1004.57
2016-07-02T08:22:23.115Z,1004.51
2016-07-02T08:25:40.949Z,1004.51
2016-07-02T08:28:46.309Z,1004.67
2016-07-02T08:32:00.286Z,1004.61
2016-07-02T08:35:13.812Z,1004.67
2016-07-02T08:38:27.321Z,1004.67
2016-07-02T08:41:40.749Z,1004.67
2016-07-02T08:44:54.518Z,1004.71
2016-07-02T08:48:07.970Z,1004.73
2016-07-02T08:51:21.862Z,1004.73
2016-07-02T08:54:39.644Z,1004.65
2016-07-02T08:57:44.861Z,1004.63
2016-07-02T09:00:58.570Z,1004.53
2016-07-02T09:04:12.629Z,1004.61
2016-07-02T09:07:26.628Z,1004.67
2016-07-02T09:10:40.323Z,1004.67
2016-07-02T09:13:54.198Z,1004.67
2016-07-02T09:17:08.250Z,1004.63
2016-07-02T09:20:22.025Z,1004.69
2016-07-02T09:23:39.974Z,1004.57
2016-07-02T09:26:45.298Z,1004.55
2016-07-02T09:29:59.237Z,1004.61
2016-07-02T09:33:13.122Z,1004.53
2016-07-02T09:36:27.114Z,1004.61
2016-07-02T09:39:41.128Z,1004.57
2016-07-02T09:42:54.968Z,1004.53
2016-07-02T09:46:09.062Z,1004.59
2016-07-02T09:49:22.853Z,1004.8
2016-07-02T09:52:40.664Z,1004.69
2016-07-02T09:55:46.238Z,1004.84
2016-07-02T09:59:00.400Z,1004.88
2016-07-02T10:02:14.394Z,1004.88
2016-07-02T10:05:28.345Z,1005.06
2016-07-02T10:08:42.151Z,1005.12
2016-07-02T10:11:56.181Z,1005.14
2016-07-02T10:15:06.605Z,1005.12
2016-07-02T10:18:20.517Z,1005.24
2016-07-02T10:21:38.443Z,1005.36
2016-07-02T10:24:43.666Z,1005.4
2016-07-02T10:27:57.283Z,1005.44
2016-07-02T10:31:09.203Z,1005.5
2016-07-02T10:34:23.212Z,1005.48
2016-07-02T10:37:39.957Z,1005.46
2016-07-02T10:40:45.006Z,1005.42
2016-07-02T10:43:58.817Z,1005.48
2016-07-02T10:47:12.633Z,1005.56
2016-07-02T10:50:26.190Z,1005.58
2016-07-02T10:53:39.813Z,1005.6
2016-07-02T10:56:52.626Z,1005.68
2016-07-02T11:00:07.286Z,1005.72
2016-07-02T11:03:21.108Z,1005.74
2016-07-02T11:06:38.465Z,1005.74
2016-07-02T11:09:43.460Z,1005.88
2016-07-02T11:12:57.128Z,1005.92
2016-07-02T11:16:11.005Z,1005.94
2016-07-02T11:19:20.891Z,1005.94
2016-07-02T11:22:39.402Z,1006.08
2016-07-02T11:25:43.202Z,1006.18
2016-07-02T11:28:56.433Z,1006.22
2016-07-02T11:32:10.094Z,1006.2
2016-07-02T11:35:23.763Z,1006.04
2016-07-02T11:38:41.239Z,1006.3
2016-07-02T11:41:46.169Z,1006.26
2016-07-02T11:44:59.617Z,1006.52
2016-07-02T11:48:13.154Z,1006.75
2016-07-02T11:51:26.836Z,1006.79
2016-07-02T11:54:42.225Z,1006.83
2016-07-02T11:57:47.002Z,1006.89
2016-07-02T12:01:00.636Z,1006.81
2016-07-02T12:04:14.072Z,1006.99
2016-07-02T12:07:27.611Z,1006.95
2016-07-02T12:10:41.130Z,1006.91
2016-07-02T12:13:54.531Z,1007.07
2016-07-02T12:17:07.515Z,1006.89
2016-07-02T12:20:21.196Z,1006.81
2016-07-02T12:23:36.939Z,1006.81
2016-07-02T12:26:41.886Z,1006.87
2016-07-02T12:29:55.543Z,1006.87
2016-07-02T12:33:08.170Z,1007.07
2016-07-02T12:36:22.759Z,1007.09
2016-07-02T12:39:40.453Z,1007.17
2016-07-02T12:42:45.238Z,1007.13
2016-07-02T12:45:58.213Z,1007.15
2016-07-02T12:49:11.661Z,1007.29
2016-07-02T12:52:25.217Z,1007.39
2016-07-02T12:55:42.513Z,1007.41
2016-07-02T12:58:47.281Z,1007.51
2016-07-02T13:02:00.727Z,1007.47
2016-07-02T13:05:14.218Z,1007.51
2016-07-02T13:08:27.961Z,1007.49
2016-07-02T13:11:40.417Z,1007.55
2016-07-02T13:14:55.084Z,1007.43
2016-07-02T13:18:08.770Z,1007.45
2016-07-02T13:21:21.757Z,1007.43
2016-07-02T13:24:39.419Z,1007.49
2016-07-02T13:27:44.363Z,1007.43
2016-07-02T13:30:57.520Z,1007.63
2016-07-02T13:34:11.146Z,1007.63
2016-07-02T13:37:24.856Z,1007.69
2016-07-02T13:40:42.538Z,1007.71
2016-07-02T13:43:47.468Z,1007.73
2016-07-02T13:47:01.176Z,1007.69
2016-07-02T13:50:14.756Z,1007.97
2016-07-02T13:53:28.812Z,1007.98
2016-07-02T13:56:42.615Z,1007.91
2016-07-02T13:59:56.283Z,1008.08
2016-07-02T14:03:09.730Z,1008.04
2016-07-02T14:06:23.277Z,1007.98
2016-07-02T14:09:40.725Z,1007.93
2016-07-02T14:12:45.685Z,1008.08
2016-07-02T14:15:59.295Z,1008.08
2016-07-02T14:19:12.748Z,1008.14
2016-07-02T14:22:26.521Z,1008.06
2016-07-02T14:25:40.289Z,1008.08
2016-07-02T14:28:54.143Z,1008
2016-07-02T14:55:50.285Z,1007.61
2016-07-02T14:59:03.725Z,1007.53
2016-07-02T15:02:16.055Z,1007.47
2016-07-02T15:05:28.496Z,1007.47
2016-07-02T15:08:40.260Z,1007.41
2016-07-02T15:11:52.794Z,1007.41
2016-07-02T15:15:05.450Z,1007.51
2016-07-02T15:18:17.784Z,1007.55
2016-07-02T15:21:30.009Z,1007.75
2016-07-02T15:24:42.327Z,1007.83
2016-07-02T15:27:54.752Z,1008.02
2016-07-02T15:31:07.099Z,1007.93
2016-07-02T15:34:18.334Z,1007.87
2016-07-02T15:37:36.078Z,1007.98
2016-07-02T15:40:43.871Z,1008.06
2016-07-02T15:43:47.717Z,1008
2016-07-02T15:47:00.457Z,1007.98
2016-07-02T15:50:12.984Z,1008.1
2016-07-02T15:53:25.597Z,1008.16
2016-07-02T15:56:42.065Z,1008.22
2016-07-02T15:59:45.836Z,1008.16
2016-07-02T16:02:58.321Z,1008.3
2016-07-02T16:06:10.872Z,1008.12
2016-07-02T16:09:23.515Z,1008
2016-07-02T16:12:40.209Z,1008.14
2016-07-02T16:15:44.048Z,1008.3
2016-07-02T16:18:56.881Z,1008.24
2016-07-02T16:22:09.414Z,1008.24
2016-07-02T16:25:21.791Z,1008.2
2016-07-02T16:28:38.566Z,1008.14
2016-07-02T16:31:42.458Z,1008.12
2016-07-02T16:34:54.913Z,1008.24
2016-07-02T16:38:07.635Z,1008.3
2016-07-02T16:41:20.601Z,1008.3
2016-07-02T16:44:37.257Z,1008.26
2016-07-02T16:47:40.091Z,1008.26
2016-07-02T16:50:53.920Z,1008.38
2016-07-02T16:54:06.426Z,1008.3
2016-07-02T16:57:19.352Z,1008.46
2016-07-02T17:00:35.692Z,1008.3
2016-07-02T17:03:43.705Z,1008.3
2016-07-02T17:06:47.693Z,1008.1
2016-07-02T17:10:00.397Z,1007.98
2016-07-02T17:13:12.950Z,1008.28
2016-07-02T17:16:23.315Z,1008.26
2016-07-02T17:19:39.991Z,1008.22
2016-07-02T17:22:43.941Z,1008.2
2016-07-02T17:25:54.289Z,1008.24
2016-07-02T17:29:06.783Z,1008.24
2016-07-02T17:32:18.825Z,1008.32
2016-07-02T17:35:35.175Z,1008.34
2016-07-02T17:38:42.845Z,1008.44
2016-07-02T17:41:46.593Z,1008.5
2016-07-02T17:44:59.190Z,1008.54
2016-07-02T17:48:11.855Z,1008.68
2016-07-02T17:51:24.334Z,1008.68
2016-07-02T17:54:40.965Z,1008.68
2016-07-02T17:57:45.054Z,1008.72
2016-07-02T18:00:57.270Z,1008.74
2016-07-02T18:04:09.957Z,1008.86
2016-07-02T18:07:22.364Z,1008.88
2016-07-02T18:10:38.813Z,1009.1
2016-07-02T18:13:42.710Z,1008.98
2016-07-02T18:16:54.283Z,1009
2016-07-02T18:20:07.926Z,1009.14
2016-07-02T18:23:20.412Z,1009.06
2016-07-02T18:26:38.074Z,1009.12
2016-07-02T18:29:44.826Z,1009.2
2016-07-02T18:32:48.680Z,1009.34
2016-07-02T18:36:01.483Z,1009.34
2016-07-02T18:39:15.084Z,1009.38
2016-07-02T18:42:26.704Z,1009.46
2016-07-02T18:45:43.327Z,1009.48
2016-07-02T18:48:47.252Z,1009.66
2016-07-02T18:52:00.012Z,1009.62
2016-07-02T18:55:09.052Z,1009.74
2016-07-02T18:58:20.353Z,1009.74
2016-07-02T19:01:36.831Z,1009.78
2016-07-02T19:04:44.599Z,1009.8
2016-07-02T19:07:48.381Z,1009.95
2016-07-02T19:11:00.711Z,1009.93
2016-07-02T19:14:13.238Z,1010.01
2016-07-02T19:17:24.940Z,1010.05
2016-07-02T19:20:40.123Z,1010.07
2016-07-02T19:23:43.995Z,1010.07
2016-07-02T19:26:56.522Z,1010.05
2016-07-02T19:30:08.167Z,1010.13
2016-07-02T19:33:20.629Z,1010.17
2016-07-02T19:36:30.307Z,1010.27
2016-07-02T19:39:44.691Z,1010.25
2016-07-02T19:42:48.483Z,1010.41
2016-07-02T19:46:01.053Z,1010.41
2016-07-02T19:49:13.712Z,1010.37
2016-07-02T19:52:26.103Z,1010.43
2016-07-02T19:55:42.540Z,1010.41
2016-07-02T19:58:46.184Z,1010.45
2016-07-02T20:01:58.733Z,1010.45
2016-07-02T20:05:11.349Z,1010.49
2016-07-02T20:08:23.050Z,1010.59
2016-07-02T20:11:36.325Z,1010.59
2016-07-02T20:14:43.864Z,1010.59
2016-07-02T20:17:47.684Z,1010.59
2016-07-02T20:21:00.337Z,1010.59
2016-07-02T20:24:12.662Z,1010.57
2016-07-02T20:27:25.250Z,1010.45
2016-07-02T20:30:41.892Z,1010.47
2016-07-02T20:33:45.685Z,1010.39
2016-07-02T20:36:58.034Z,1010.45
2016-07-02T20:40:10.870Z,1010.45
2016-07-02T20:43:23.228Z,1010.53
2016-07-02T20:46:39.688Z,1010.47
2016-07-02T20:49:43.389Z,1010.55
2016-07-02T20:52:55.619Z,1010.59
2016-07-02T20:56:08.012Z,1010.59
2016-07-02T20:59:20.583Z,1010.59
2016-07-02T21:02:37.337Z,1010.69
2016-07-02T21:05:45.187Z,1010.63
2016-07-02T21:08:48.898Z,1010.63
2016-07-02T21:12:01.594Z,1010.65
2016-07-02T21:15:14.284Z,1010.75
2016-07-02T21:18:27.032Z,1010.73
2016-07-02T21:21:43.569Z,1010.75
2016-07-02T21:24:47.402Z,1010.81
2016-07-02T21:28:00.100Z,1010.71
2016-07-02T21:31:12.792Z,1010.71
2016-07-02T21:34:25.393Z,1010.77
2016-07-02T21:37:41.871Z,1010.75
2016-07-02T21:40:45.684Z,1010.65
2016-07-02T21:43:58.484Z,1010.69
2016-07-02T21:47:11.162Z,1010.73
2016-07-02T21:50:23.636Z,1010.75
2016-07-02T21:53:40.246Z,1010.77
2016-07-02T21:56:44.251Z,1010.81
2016-07-02T21:59:57.001Z,1010.83
2016-07-02T22:03:09.567Z,1010.85
2016-07-02T22:06:22.185Z,1010.81
2016-07-02T22:09:37.252Z,1010.91
2016-07-02T22:12:45.250Z,1010.91
2016-07-02T22:15:49.068Z,1011.01
2016-07-02T22:19:01.956Z,1011.07
2016-07-02T22:22:14.295Z,1011.03
2016-07-02T22:25:26.789Z,1011.07
2016-07-02T22:28:41.813Z,1011.05
2016-07-02T22:31:45.608Z,1011.11
2016-07-02T22:34:58.223Z,1011.09
2016-07-02T22:38:10.885Z,1011.17
2016-07-02T22:41:23.585Z,1011.09
2016-07-02T22:44:40.060Z,1011.11
2016-07-02T22:47:43.793Z,1011.15
2016-07-02T22:50:56.713Z,1011.19
2016-07-02T22:54:09.700Z,1011.09
2016-07-02T22:57:21.818Z,1011.03
2016-07-02T23:00:38.472Z,1011.13
2016-07-02T23:03:46.564Z,1011.19
2016-07-02T23:06:50.434Z,1011.25
2016-07-02T23:10:03.152Z,1011.25
2016-07-02T23:13:15.744Z,1011.33
2016-07-02T23:16:27.527Z,1011.29
2016-07-02T23:19:45.018Z,1011.33
2016-07-02T23:22:47.887Z,1011.25
2016-07-02T23:26:01.508Z,1011.33
2016-07-02T23:29:14.307Z,1011.37
2016-07-02T23:32:27.297Z,1011.51
2016-07-02T23:35:43.970Z,1011.47
2016-07-02T23:38:48.015Z,1011.41
2016-07-02T23:42:00.068Z,1011.43
2016-07-02T23:45:12.640Z,1011.43
2016-07-02T23:48:25.154Z,1011.43
2016-07-02T23:51:41.844Z,1011.45
2016-07-02T23:54:45.669Z,1011.51
2016-07-02T23:57:57.230Z,1011.51
